Metar Aviation Weather Data KORD Chicago O'hare International

37°F Temp
36°F Dewpoint
93% Humidity
Temperature
9 MPH
14 KM/H
8 KTS
30°
North North
East

Wind Speed
Misty
Conditions
Pressure 1023 (hPa) - 30.21 (in)
Visibility 1.7 (mi) - 3 (km)

Current Conditions
KORD
Chicago O'hare International
Metar :KORD 150026Z 03008KT 1 3/4SM BR OVC004 03/02 A3021 RMK AO2 T00280022
Fri 14th December 19:26 pm

Chicago O'hare International
  Metar Aviation API Data Provided by https://www.checkwx.com/ PHP scripts by weather34.com ©2018